WetterOnline ( https://www.wetteronline.de )

Wetter aktuell Heide

Aktuelles Wetter: Heide/Elpersbüttel (5m)

6-stündlich | Neueste Meldungen
Ortszeit Temperatur Wetter
Mo, 26.09. 8:00 10.6° C leichter Regen
Mo, 26.09. 2:00 11.0° C bedeckt
So, 25.09. 20:00 10.9° C leicht bewölkt
So, 25.09. 14:00 15.1° C leicht bewölkt
So, 25.09. 8:00 11.1° C bewölkt
So, 25.09. 2:00 11.6° C bedeckt
Sa, 24.09. 20:00 12.2° C leichter Regen
Sa, 24.09. 14:00 12.6° C leichter Regen
Ortszeit Temperatur Wetter
Mo, 26.09. 10:10 10.8° C leichter Regen
Mo, 26.09. 10:00 10.7° C leichter Regen
Mo, 26.09. 9:50 10.7° C leichter Regen
Mo, 26.09. 9:40 10.6° C leichter Regen
Mo, 26.09. 9:30 10.6° C leichter Regen
Mo, 26.09. 9:20 10.6° C leichter Regen
Mo, 26.09. 9:00 10.5° C leichter Regen
Mo, 26.09. 8:30 10.4° C leichter Regen
Mo, 26.09. 8:00 10.6° C leichter Regen
Mo, 26.09. 7:30 10.7° C leichter Regen
Ortszeit Relative Feuchte Sichtweite
Mo, 26.09. 8:00 92% 27 km
Mo, 26.09. 2:00 89% 50 km
So, 25.09. 20:00 79% 50 km
So, 25.09. 14:00 65% 45 km
So, 25.09. 8:00 96% 17 km
So, 25.09. 2:00 97% 28 km
Sa, 24.09. 20:00 99% 1.9 km
Sa, 24.09. 14:00 98% 1.5 km
Ortszeit Relative Feuchte Sichtweite
Mo, 26.09. 10:10 93% -
Mo, 26.09. 10:00 93% 18 km
Mo, 26.09. 9:50 93% -
Mo, 26.09. 9:40 94% -
Mo, 26.09. 9:30 94% 18 km
Mo, 26.09. 9:20 94% -
Mo, 26.09. 9:00 93% 20 km
Mo, 26.09. 8:30 94% 17 km
Mo, 26.09. 8:00 92% 27 km
Mo, 26.09. 7:30 90% 28 km
Ortszeit Niederschlagsmenge Niederschlagsart
Mo, 26.09. 8:00 0.4 l/m2 in 12 Std. Regen
Mo, 26.09. 2:00 0.3 l/m2 in 6 Std. Regen
So, 25.09. 20:00 0.0 l/m2 in 12 Std. -
So, 25.09. 14:00 0.0 l/m2 in 6 Std. -
So, 25.09. 8:00 3 l/m2 in 12 Std. -
So, 25.09. 2:00 3 l/m2 in 6 Std. Regen
Sa, 24.09. 20:00 10 l/m2 in 12 Std. Regen
Sa, 24.09. 14:00 3 l/m2 in 6 Std. Regen
Ortszeit Niederschlagsmenge Niederschlagsart
Mo, 26.09. 10:10 keine Meldung -
Mo, 26.09. 10:00 0.1 l/m2 in 1 Std. Regen
Mo, 26.09. 9:50 keine Meldung -
Mo, 26.09. 9:40 keine Meldung -
Mo, 26.09. 9:30 0.1 l/m2 in 1 Std. -
Mo, 26.09. 9:20 keine Meldung -
Mo, 26.09. 9:00 0.3 l/m2 in 1 Std. Regen
Mo, 26.09. 8:30 0.2 l/m2 in 1 Std. -
Mo, 26.09. 8:00 0.1 l/m2 in 1 Std. Regen
Mo, 26.09. 7:30 0.1 l/m2 in 1 Std. -
Ortszeit Stärke Spitze Richtung
km/h Bft. km/h Grad Sektor
Mo, 26.09. 8:00 28 4 48 210° SW
Mo, 26.09. 2:00 17 3 31 200° S
So, 25.09. 20:00 9 2 30 300° NW
So, 25.09. 14:00 17 3 28 310° NW
So, 25.09. 8:00 7 2 18 340° N
So, 25.09. 2:00 7 2 22 340° N
Sa, 24.09. 20:00 13 3 24 360° N
Sa, 24.09. 14:00 11 2 14 50° NO
Ortszeit Stärke Spitze Richtung
km/h Bft. km/h Grad Sektor
Mo, 26.09. 10:10 31 5 - 190° S
Mo, 26.09. 10:00 29 5 40 190° S
Mo, 26.09. 9:50 29 5 - 190° S
Mo, 26.09. 9:40 28 4 - 190° S
Mo, 26.09. 9:30 28 4 37 190° S
Mo, 26.09. 9:20 28 4 - 190° S
Mo, 26.09. 9:00 28 4 41 190° S
Mo, 26.09. 8:30 25 4 40 200° S
Mo, 26.09. 8:00 28 4 48 210° SW
Mo, 26.09. 7:30 31 5 44 210° SW
Ortszeit Untergrenze Bedeckung Gattung
total tief tief mittel hoch
Mo, 26.09. 8:00 1500 m 8/8 8/8 - - -
Mo, 26.09. 2:00 1500 m 8/8 8/8 - - -
So, 25.09. 20:00 8100 m 4/8 0/8 - - -
So, 25.09. 14:00 2700 m 4/8 4/8 - - -
So, 25.09. 8:00 2100 m 8/8 7/8 - - -
So, 25.09. 2:00 1440 m 8/8 8/8 - - -
Sa, 24.09. 20:00 120 m 7/8 7/8 - - -
Sa, 24.09. 14:00 90 m 8/8 8/8 - - -
Ortszeit Bedeckungsgrad in Achtel und Wolkenuntergrenze
Mo, 26.09. 10:10 7
Mo, 26.09. 10:00 2(990m) 5(1500m) 8(1500m)
Mo, 26.09. 9:50 2(990m) 5(1500m) 8(1500m)
Mo, 26.09. 9:40 8
Mo, 26.09. 9:30 1(330m) 7(990m) 8(1500m)
Mo, 26.09. 9:20 1(330m) 7(990m) 8(1500m)
Mo, 26.09. 9:00 4(1140m) 8(1470m)
Mo, 26.09. 8:30 8(1500m)
Mo, 26.09. 8:00 7(1500m) 8(1800m)
Mo, 26.09. 7:30 5(1500m) 7(2100m)
Ortszeit Luftdruck NN (hPa) Tendenz (hPa in 3 Std.)
Mo, 26.09. 8:00 1001 - 2,3
Mo, 26.09. 2:00 1006 - 2,7
So, 25.09. 20:00 1010 - 1,0
So, 25.09. 14:00 1013 - 0,7
So, 25.09. 8:00 1013 - 0,2
So, 25.09. 2:00 1013 - 0,3
Sa, 24.09. 20:00 1013 + 0,6
Sa, 24.09. 14:00 1013 + 0,2
Ortszeit Luftdruck NN (hPa) Tendenz (hPa in 3 Std.)
Mo, 26.09. 10:10 999 keine Meldung
Mo, 26.09. 10:00 999 - 1,8
Mo, 26.09. 9:50 999 keine Meldung
Mo, 26.09. 9:40 999 keine Meldung
Mo, 26.09. 9:30 1000 - 1,9
Mo, 26.09. 9:20 1000 keine Meldung
Mo, 26.09. 9:00 1000 - 2,0
Mo, 26.09. 8:30 1000 - 2,0
Mo, 26.09. 8:00 1001 - 2,3
Mo, 26.09. 7:30 1001 - 2,7
Ortszeit Schneehöhe (cm)
Mo, 26.09. 8:00 0
Mo, 26.09. 2:00 0
So, 25.09. 20:00 0
So, 25.09. 14:00 0
So, 25.09. 8:00 0
So, 25.09. 2:00 0
Sa, 24.09. 20:00 0
Sa, 24.09. 14:00 0
Ortszeit Schneehöhe (cm)
Mo, 26.09. 10:10 0
Mo, 26.09. 10:00 0
Mo, 26.09. 9:50 0
Mo, 26.09. 9:40 0
Mo, 26.09. 9:30 0
Mo, 26.09. 9:20 0
Mo, 26.09. 9:00 0
Mo, 26.09. 8:30 0
Mo, 26.09. 8:00 0
Mo, 26.09. 7:30 0
Link zu dieser Seite / Seite empfehlen

Das Wetter in ...